M I D A S
Marine Information and Data Acquisition System
Tripno 1568 of the Zeeleeuw from 2008-09-17 07:01:29 to 2008-09-17 14:12:00
Back to CruiseResearch ActivitiesStationsMapUnderway DataData graphs

EquipmentUnitsComment
TimeDGPSUTC
LatitudeDGPSDM.mWGS84
LongitudeDGPSDM.mWGS84
HeadingGyrodeg 
SOGDGPSknotsSpeed over ground
COGDGPSdegCourse over ground
DepthEcho soundermeters200 kHz
Missing or incorrect values are displayed as -999
Navigation data collected by the RV Zeeleeuw from 2008-09-17 07:01:29 to 2008-09-17 14:12:00
Time Latitude Longitude Heading SOG COG Depth
2008-09-17 07:03:30 51°13.696 2°55.835 122 4.79 302 -999
2008-09-17 07:05:30 51°13.824 2°55.646 143.5 5.29 323 -999
2008-09-17 07:07:30 51°13.936 2°55.653 209 2.89 22 -999
2008-09-17 07:09:30 51°14.004 2°55.53 322.8 3.79 325 -999
2008-09-17 07:11:30 51°14.176 2°55.358 330.8 6.5 329 -999
2008-09-17 07:13:30 51°14.421 2°54.93 309.6 11.8 306 -999
2008-09-17 07:15:30 51°14.743 2°54.574 334.1 11.8 326 -999
2008-09-17 07:17:30 51°15.076 2°54.267 336.1 11.4 330 -999
2008-09-17 07:19:30 51°15.411 2°53.956 336 11.69 329 -999
2008-09-17 07:21:30 51°15.751 2°53.65 338.6 11.69 331 -999
2008-09-17 07:23:30 51°16.094 2°53.347 338.3 11.8 330 -999
2008-09-17 07:25:30 51°16.437 2°53.043 339.3 11.8 331 -999
2008-09-17 07:27:30 51°16.776 2°52.758 339.1 11.59 333 -999
2008-09-17 07:29:30 51°17.116 2°52.483 339.3 11.3 333 -999
2008-09-17 07:31:30 51°17.438 2°52.162 332.6 11.59 321 -999
2008-09-17 07:33:30 51°17.725 2°51.747 325.6 11.59 318 -999
2008-09-17 07:35:30 51°18.018 2°51.339 326.1 11.69 319 -999
2008-09-17 07:37:30 51°18.314 2°50.924 326.5 11.9 319 -999
2008-09-17 07:39:30 51°18.612 2°50.509 327.8 11.9 318 -999
2008-09-17 07:41:30 51°18.916 2°50.096 327.6 12 319 -999
2008-09-17 07:43:30 51°19.219 2°49.673 326.1 12.19 318 -999
2008-09-17 07:45:30 51°19.522 2°49.241 326.1 12.19 318 -999
2008-09-17 07:47:30 51°19.82 2°48.788 322.1 12.3 316 -999
2008-09-17 07:49:30 51°20.139 2°48.383 329.5 12.09 328 -999
2008-09-17 07:51:30 51°20.5 2°48.143 347.6 11.8 337 -999
2008-09-17 07:53:30 51°20.863 2°47.909 349.6 11.69 340 -999
2008-09-17 07:55:30 51°21.201 2°47.553 332.6 12.4 323 -999
2008-09-17 07:57:30 51°21.521 2°47.116 328.8 12.59 320 -999
2008-09-17 07:59:30 51°21.829 2°46.644 323.5 12.8 315 -999
2008-09-17 08:01:30 51°22.125 2°46.197 324.1 12.09 317 -999
2008-09-17 08:03:30 51°22.418 2°45.766 324.8 12 316 -999
2008-09-17 08:05:30 51°22.707 2°45.321 322.8 12.09 315 -999
2008-09-17 08:07:30 51°22.977 2°44.833 320.8 12.19 313 -999
2008-09-17 08:09:30 51°23.252 2°44.348 322.1 12.09 314 -999
2008-09-17 08:11:30 51°23.52 2°43.855 319.1 12.3 310 -999
2008-09-17 08:13:30 51°23.795 2°43.374 322.6 12.3 314 -999
2008-09-17 08:15:30 51°24.069 2°42.891 320.6 12.3 311 -999
2008-09-17 08:17:30 51°24.342 2°42.408 320.8 12.19 312 -999
2008-09-17 08:19:30 51°24.623 2°41.945 325.1 12 315 -999
2008-09-17 08:21:30 51°24.899 2°41.49 324.3 12 314 -999
2008-09-17 08:23:30 51°25.176 2°41.031 322.8 12 315 -999
2008-09-17 08:25:30 51°25.453 2°40.566 322.8 12.09 314 -999
2008-09-17 08:27:30 51°25.741 2°40.126 325.3 11.9 317 -999
2008-09-17 08:29:30 51°26.029 2°39.683 327.1 12.09 318 -999
2008-09-17 08:31:30 51°26.321 2°39.236 328.1 12.09 317 -999
2008-09-17 08:33:30 51°26.604 2°38.79 328 11.8 317 -999
2008-09-17 08:35:30 51°26.889 2°38.36 328 11.8 316 -999
2008-09-17 08:37:30 51°27.168 2°37.918 323.8 11.8 314 -999
2008-09-17 08:39:30 51°27.448 2°37.48 325.5 11.9 314 -999
2008-09-17 08:41:30 51°27.73 2°37.044 325 11.69 314 -999
2008-09-17 08:43:30 51°28.008 2°36.595 325.6 11.9 314 -999
2008-09-17 08:45:30 51°28.285 2°36.144 325.3 12 312 -999
2008-09-17 08:47:30 51°28.62 2°36.026 8.8 10.19 8 -999
2008-09-17 08:49:30 51°28.953 2°36.146 20.1 10.3 13 -999
2008-09-17 08:51:30 51°29.289 2°36.251 17.5 10.3 9 -999
2008-09-17 08:53:30 51°29.629 2°36.352 18.6 10.4 12 -999
2008-09-17 08:55:30 51°29.969 2°36.469 18.8 10.59 14 -999
2008-09-17 08:57:30 51°30.311 2°36.58 19 10.5 15 -999
2008-09-17 08:59:30 51°30.654 2°36.696 18.1 10.5 14 -999
2008-09-17 09:01:30 51°30.996 2°36.814 17.6 10.5 13 -999
2008-09-17 09:03:30 51°31.339 2°36.932 15.9 10.59 13 -999
2008-09-17 09:05:30 51°31.671 2°37.098 20.8 10.4 17 -999
2008-09-17 09:07:30 51°32.001 2°37.27 23.8 10.5 20 -999
2008-09-17 09:09:30 51°32.335 2°37.431 19.6 10.5 15 -999
2008-09-17 09:11:30 51°32.667 2°37.596 22.1 10.4 18 -999
2008-09-17 09:13:30 51°32.998 2°37.77 22.8 10.5 17 -999
2008-09-17 09:15:30 51°33.33 2°37.921 19.1 10.3 14 -999
2008-09-17 09:17:30 51°33.66 2°38.072 20.1 10.3 16 -999
2008-09-17 09:19:30 51°33.984 2°38.255 22.1 10.3 18 -999
2008-09-17 09:21:30 51°34.309 2°38.446 25.6 10.4 21 -999
2008-09-17 09:23:30 51°34.642 2°38.601 21 10.4 16 -999
2008-09-17 09:25:30 51°34.976 2°38.764 22.3 10.4 18 -999
2008-09-17 09:27:30 51°35.307 2°38.932 22.8 10.5 16 -999
2008-09-17 09:29:30 51°35.64 2°39.085 21.6 10.5 16 -999
2008-09-17 09:31:30 51°35.977 2°39.24 19.8 10.5 17 -999
2008-09-17 09:33:30 51°36.312 2°39.4 20.8 10.5 16 -999
2008-09-17 09:35:30 51°36.644 2°39.57 22.5 10.5 17 -999
2008-09-17 09:37:30 51°36.979 2°39.737 22 10.5 16 -999
2008-09-17 09:39:30 51°37.315 2°39.891 21.6 10.5 16 -999
2008-09-17 09:41:30 51°37.651 2°40.049 20.8 10.5 16 -999
2008-09-17 09:43:30 51°37.955 2°40.277 32.2 10.19 35 -999
2008-09-17 09:45:30 51°38.116 2°40.752 63.2 10.3 68 -999
2008-09-17 09:47:30 51°38.084 2°41.321 91.5 10.69 98 -999
2008-09-17 09:49:30 51°38.017 2°41.874 89 10.59 101 -999
2008-09-17 09:51:30 51°37.61 2°41.865 187.6 13.9 194 -999
2008-09-17 09:53:30 51°37.161 2°41.664 192.5 14.09 198 -999
2008-09-17 09:55:30 51°36.711 2°41.471 191 14 196 -999
2008-09-17 09:57:30 51°36.268 2°41.26 191.1 13.9 197 -999
2008-09-17 09:59:30 51°35.822 2°41.072 189.3 13.9 195 -999
2008-09-17 10:01:30 51°35.382 2°40.886 190.6 13.69 194 -999
2008-09-17 10:03:30 51°34.943 2°40.691 192.1 13.9 198 -999
2008-09-17 10:05:30 51°34.502 2°40.498 196.5 13.9 196 -999
2008-09-17 10:07:30 51°34.053 2°40.288 195 14.09 197 -999
2008-09-17 10:09:30 51°33.597 2°40.073 194.8 14.19 197 -999
2008-09-17 10:11:30 51°33.138 2°39.868 193.4 14.4 197 -999
2008-09-17 10:13:30 51°32.682 2°39.648 195 14.3 198 -999
2008-09-17 10:15:30 51°32.223 2°39.427 195.4 14.3 198 -999
2008-09-17 10:17:30 51°31.769 2°39.211 192.5 14.19 195 -999
2008-09-17 10:19:30 51°31.317 2°38.987 193.8 14.3 199 -999
2008-09-17 10:21:30 51°30.869 2°38.754 194.6 14.3 198 -999
2008-09-17 10:23:30 51°30.418 2°38.54 195.4 14.19 199 -999
2008-09-17 10:25:30 51°30.156 2°38.919 109 11.3 111 -999
2008-09-17 10:27:30 51°30.247 2°39.475 68.5 10.9 77 -999
2008-09-17 10:29:30 51°30.319 2°40.046 71.5 10.9 78 -999
2008-09-17 10:31:30 51°30.402 2°40.622 70 11.19 79 -999
2008-09-17 10:33:30 51°30.483 2°41.198 69.4 11.09 78 -999
2008-09-17 10:35:30 51°30.777 2°41.472 22 10.69 22 -999
2008-09-17 10:37:30 51°31.105 2°41.712 24.6 10.9 25 -999
2008-09-17 10:39:30 51°31.437 2°41.944 22.6 10.9 23 -999
2008-09-17 10:41:30 51°31.762 2°42.196 25 10.9 26 -999
2008-09-17 10:43:30 51°32.093 2°42.437 21.6 11 23 -999
2008-09-17 10:45:30 51°32.435 2°42.643 19.5 11 20 -999
2008-09-17 10:47:30 51°32.777 2°42.843 18.8 11 20 -999
2008-09-17 10:49:30 51°33.121 2°43.034 17 11 18 -999
2008-09-17 10:51:30 51°33.466 2°43.218 17.3 10.9 18 -999
2008-09-17 10:53:30 51°33.805 2°43.428 21 10.9 21 -999
2008-09-17 10:55:30 51°34.15 2°43.623 17.5 11 17 -999
2008-09-17 10:57:30 51°34.494 2°43.822 20.6 11 20 -999
2008-09-17 10:59:30 51°34.842 2°44 18 11 17 -999
2008-09-17 11:01:30 51°35.192 2°44.174 18.6 11 17 -999
2008-09-17 11:03:30 51°35.542 2°44.358 18.1 11 18 -999
2008-09-17 11:05:30 51°35.892 2°44.556 20.5 11.09 19 -999
2008-09-17 11:07:30 51°36.248 2°44.725 17.3 11.09 15 -999
2008-09-17 11:09:30 51°36.595 2°44.913 21.3 11 19 -999
2008-09-17 11:11:30 51°36.933 2°45.14 24.6 11 23 -999
2008-09-17 11:13:30 51°37.274 2°45.361 24.8 10.9 22 -999
2008-09-17 11:15:30 51°37.622 2°45.547 19.6 11.09 15 -999
2008-09-17 11:17:30 51°37.971 2°45.756 23.3 11.09 20 -999
2008-09-17 11:19:30 51°38.317 2°45.952 22.8 11.09 20 -999
2008-09-17 11:21:30 51°38.671 2°46.147 20.6 11.09 18 -999
2008-09-17 11:23:30 51°39.016 2°46.365 26.3 11.19 22 -999
2008-09-17 11:25:30 51°39.361 2°46.584 25.3 11.09 22 -999
2008-09-17 11:27:30 51°39.705 2°46.811 25.3 11.09 22 -999
2008-09-17 11:29:30 51°40.047 2°47.041 25.8 11.19 22 -999
2008-09-17 11:31:30 51°40.389 2°47.287 28.1 11.4 25 -999
2008-09-17 11:33:30 51°40.735 2°47.528 25.8 11.3 23 -999
2008-09-17 11:35:30 51°41.088 2°47.743 23 11.19 20 -999
2008-09-17 11:37:30 51°41.442 2°47.955 25.1 11.4 23 -999
2008-09-17 11:39:30 51°41.725 2°48.313 47.5 11.3 51 -999
2008-09-17 11:41:30 51°41.596 2°48.895 119.5 12.4 126 -999
2008-09-17 11:43:30 51°41.275 2°49.321 141 12.69 146 -999
2008-09-17 11:45:30 51°40.851 2°49.332 187.3 13 188 -999
2008-09-17 11:47:30 51°40.436 2°49.14 197 13.09 196 -999
2008-09-17 11:49:30 51°40.014 2°48.948 196.9 13 197 -999
2008-09-17 11:51:30 51°39.603 2°48.741 199.4 13 199 -999
2008-09-17 11:53:30 51°39.192 2°48.541 197.5 12.8 197 -999
2008-09-17 11:55:30 51°38.777 2°48.346 197.1 12.9 195 -999
2008-09-17 11:57:30 51°38.373 2°48.147 199.9 12.8 199 -999
2008-09-17 11:59:30 51°37.972 2°47.925 198.5 12.59 196 -999
2008-09-17 13:01:30 51°26.575 2°45.849 162.6 11.5 156 -999
2008-09-17 13:03:30 51°26.225 2°46.103 161 11.59 156 -999
2008-09-17 13:05:30 51°25.869 2°46.337 163.8 11.59 160 -999
2008-09-17 13:07:30 51°25.519 2°46.601 161.1 11.59 154 -999
2008-09-17 13:09:30 51°25.168 2°46.859 162.3 11.5 155 -999
2008-09-17 13:11:30 51°24.817 2°47.109 163.5 11.5 157 -999
2008-09-17 13:13:30 51°24.465 2°47.36 163.5 11.59 156 -999
2008-09-17 13:15:30 51°24.122 2°47.626 161.4 11.4 157 -999
2008-09-17 13:17:30 51°23.774 2°47.88 161.5 11.5 156 -999
2008-09-17 13:19:30 51°23.416 2°48.101 166 11.5 160 -999
2008-09-17 13:21:30 51°23.056 2°48.318 167 11.5 160 -999
2008-09-17 13:23:30 51°22.702 2°48.541 166 11.4 159 -999
2008-09-17 13:25:30 51°22.35 2°48.774 167.5 11.5 157 -999
2008-09-17 13:27:30 51°21.989 2°49.014 163.6 11.8 159 -999
2008-09-17 13:29:30 51°21.628 2°49.254 163 11.69 156 -999
2008-09-17 13:31:30 51°21.269 2°49.494 164.5 11.8 157 -999
2008-09-17 13:33:30 51°20.924 2°49.741 163 11.4 154 -999
2008-09-17 13:35:30 51°20.576 2°49.99 165.4 11.5 156 -999
2008-09-17 13:37:30 51°20.228 2°50.243 164.1 11.4 157 -999
2008-09-17 13:39:30 51°19.874 2°50.471 165.6 11.5 160 -999
2008-09-17 13:41:30 51°19.517 2°50.697 163 11.69 157 -999
2008-09-17 13:43:30 51°19.157 2°50.916 162 11.69 158 -999
2008-09-17 13:45:30 51°18.8 2°51.137 165.6 11.4 159 -999
2008-09-17 13:47:30 51°18.459 2°51.403 161.1 11.4 155 -999
2008-09-17 13:49:30 51°18.115 2°51.652 158.9 11.3 156 -999
2008-09-17 13:51:30 51°17.77 2°51.899 159 11.19 156 -999
2008-09-17 13:53:30 51°17.433 2°52.164 158.5 11.4 154 -999
2008-09-17 13:55:30 51°17.096 2°52.45 156.4 11.4 152 -999
2008-09-17 13:57:30 51°16.758 2°52.734 157 11.5 151 -999
2008-09-17 13:59:30 51°16.42 2°53.036 158 11.69 150 -999
2008-09-17 14:01:30 51°16.076 2°53.324 158.9 11.69 152 -999
2008-09-17 14:03:30 51°15.738 2°53.639 155.8 11.69 149 -999
2008-09-17 14:05:30 51°15.4 2°53.953 156 11.69 150 -999
2008-09-17 14:07:30 51°15.07 2°54.275 152.3 11.69 148 -999
2008-09-17 14:09:30 51°14.742 2°54.621 153.1 11.69 147 -999
2008-09-17 14:11:30 51°14.423 2°54.985 150 11.8 147 -999